Time;durP1;ratioP1;P1;durP2;ratioP2;P2;SDS_P1;SDS_P2;PMS_P1;PMS_P2;Temp;Humidity;BMP_temperature;BMP_pressure;BME280_temperature;BME280_humidity;BME280_pressure;Samples;Min_cycle;Max_cycle;Signal;HPM_P1;HPM_P2
2021/07/02 00:00:01;;;;;;;9.43;6.20;;;;;;;9.18;84.72;90955.66;4961271;28;20023;-86
2021/07/02 00:02:40;;;;;;;9.93;5.97;;;;;;;9.21;84.47;90955.03;4961962;28;20030;-88
2021/07/02 00:05:16;;;;;;;11.55;6.28;;;;;;;9.19;84.54;90957.97;4956456;28;20493;-88
2021/07/02 00:07:56;;;;;;;12.43;6.78;;;;;;;9.16;84.46;90958.59;4949830;28;20030;-88
2021/07/02 00:10:35;;;;;;;11.52;6.35;;;;;;;9.14;84.54;90954.78;4973656;28;20030;-87
2021/07/02 00:13:22;;;;;;;12.20;6.72;;;;;;;9.07;84.98;90950.84;4940610;28;20026;-88
2021/07/02 00:15:58;;;;;;;11.77;6.45;;;;;;;9.07;84.17;90958.66;5001543;28;20034;-89
2021/07/02 00:18:38;;;;;;;9.50;5.85;;;;;;;9.01;83.82;90946.16;4959387;28;20133;-88
2021/07/02 00:21:12;;;;;;;13.00;6.38;;;;;;;8.91;84.01;90947.31;4993101;28;20116;-88
2021/07/02 00:23:57;;;;;;;10.88;5.93;;;;;;;8.89;83.91;90946.09;4975987;28;20041;-88
2021/07/02 00:26:31;;;;;;;10.05;6.20;;;;;;;8.79;84.11;90945.38;4996176;28;20046;-88
2021/07/02 00:28:59;;;;;;;10.13;6.30;;;;;;;8.75;83.96;90944.50;4976053;28;20567;-87
2021/07/02 00:31:37;;;;;;;9.38;5.90;;;;;;;8.74;84.04;90942.22;4975487;28;20018;-88
2021/07/02 00:34:13;;;;;;;9.82;6.13;;;;;;;8.64;84.24;90948.53;4976484;28;20018;-88
2021/07/02 00:36:53;;;;;;;11.07;5.88;;;;;;;8.54;84.33;90938.50;4944254;28;20053;-87
2021/07/02 00:39:42;;;;;;;10.38;6.25;;;;;;;8.49;84.59;90944.66;4960599;28;20407;-88
2021/07/02 00:42:18;;;;;;;9.38;5.82;;;;;;;8.49;83.52;90941.28;4977768;28;20022;-87
2021/07/02 00:44:54;;;;;;;9.48;6.15;;;;;;;8.40;83.57;90937.97;4975003;28;20026;-88
2021/07/02 00:47:36;;;;;;;9.00;5.70;;;;;;;8.34;83.84;90934.78;4975689;28;20026;-88
2021/07/02 00:50:18;;;;;;;9.77;5.80;;;;;;;8.21;84.06;90933.16;4960388;28;20029;-88
2021/07/02 00:53:01;;;;;;;8.93;5.75;;;;;;;8.23;84.59;90943.97;4976430;28;20026;-88
2021/07/02 00:55:40;;;;;;;8.25;5.45;;;;;;;8.24;83.31;90933.28;4977386;28;20038;-88
2021/07/02 00:58:17;;;;;;;14.05;5.90;;;;;;;8.12;84.66;90933.94;4960541;28;20104;-88
2021/07/02 01:00:50;;;;;;;11.13;5.78;;;;;;;8.15;84.07;90928.13;4975860;28;20556;-88
2021/07/02 01:03:23;;;;;;;8.83;5.90;;;;;;;7.98;84.46;90932.63;4960060;28;20022;-88
2021/07/02 01:06:05;;;;;;;9.52;5.95;;;;;;;8.03;84.28;90930.63;4960256;28;20291;-88
2021/07/02 01:08:44;;;;;;;13.20;5.75;;;;;;;7.96;83.95;90935.53;4976383;28;20022;-89
2021/07/02 01:11:22;;;;;;;11.50;6.05;;;;;;;7.90;84.36;90934.19;4976096;28;20073;-88
2021/07/02 01:14:02;;;;;;;9.73;5.90;;;;;;;7.79;85.19;90940.78;4992287;28;20022;-87
2021/07/02 01:16:39;;;;;;;10.13;5.68;;;;;;;7.77;84.90;90940.31;4954226;28;20133;-88
2021/07/02 01:19:18;;;;;;;9.35;6.03;;;;;;;7.78;85.14;90934.06;4955857;28;20128;-88
2021/07/02 01:21:54;;;;;;;10.85;5.65;;;;;;;7.77;85.39;90924.75;4956657;28;20480;-87
2021/07/02 01:24:37;;;;;;;10.30;6.18;;;;;;;7.71;84.99;90928.59;4939655;28;20034;-87
2021/07/02 01:27:09;;;;;;;10.48;6.35;;;;;;;7.70;85.06;90930.41;4968904;28;20031;-87
2021/07/02 01:29:44;;;;;;;11.02;6.10;;;;;;;7.64;85.12;90929.81;4974967;28;20118;-88
2021/07/02 01:32:27;;;;;;;9.40;6.10;;;;;;;7.62;85.53;90931.19;4974481;28;20034;-88
2021/07/02 01:35:04;;;;;;;10.23;5.88;;;;;;;7.66;85.56;90932.09;4974168;28;20113;-88
2021/07/02 01:37:43;;;;;;;9.90;5.90;;;;;;;7.75;85.38;90926.91;4990964;28;20026;-87
2021/07/02 01:40:19;;;;;;;9.60;5.93;;;;;;;7.65;85.84;90928.00;4975060;28;20110;-86
2021/07/02 01:42:58;;;;;;;12.48;6.53;;;;;;;7.55;85.55;90930.91;4975414;28;20377;-89
2021/07/02 01:45:40;;;;;;;10.85;6.30;;;;;;;7.57;86.18;90926.94;4974372;28;20412;-87
2021/07/02 01:48:18;;;;;;;9.25;5.78;;;;;;;7.52;85.21;90932.28;4975931;28;20385;-88
2021/07/02 01:50:56;;;;;;;9.98;5.57;;;;;;;7.45;84.16;90937.16;4971585;28;20400;-88
2021/07/02 01:53:30;;;;;;;14.70;6.25;;;;;;;7.41;85.24;90936.25;4971453;28;20035;-88
2021/07/02 01:56:08;;;;;;;11.15;5.88;;;;;;;7.29;85.38;90933.56;4955293;28;20023;-88
2021/07/02 01:58:48;;;;;;;10.50;6.05;;;;;;;7.26;85.08;90923.78;4983934;28;20552;-88
2021/07/02 02:01:24;;;;;;;11.98;5.50;;;;;;;7.30;84.64;90929.88;4979774;28;20057;-88
2021/07/02 02:04:00;;;;;;;9.75;5.38;;;;;;;7.37;84.61;90927.59;4978409;28;20034;-88
2021/07/02 02:06:34;;;;;;;11.07;6.15;;;;;;;7.29;84.82;90926.53;4963553;28;20022;-87
2021/07/02 02:09:15;;;;;;;10.85;6.18;;;;;;;7.16;85.53;90923.03;4979338;28;20057;-87
2021/07/02 02:11:57;;;;;;;9.10;5.30;;;;;;;7.26;84.72;90923.78;4979290;28;20045;-87
2021/07/02 02:14:31;;;;;;;10.57;6.80;;;;;;;7.19;84.67;90922.41;4979140;28;20018;-87
2021/07/02 02:17:04;;;;;;;9.95;6.10;;;;;;;7.23;84.68;90917.38;4994406;28;20038;-88
2021/07/02 02:19:44;;;;;;;11.33;6.20;;;;;;;7.15;84.84;90918.91;4963821;28;20026;-88
2021/07/02 02:22:26;;;;;;;12.00;6.90;;;;;;;7.06;85.70;90915.56;4978838;28;20358;-87
2021/07/02 02:25:02;;;;;;;10.35;5.88;;;;;;;6.95;85.57;90914.34;4978585;28;20026;-89
2021/07/02 02:27:39;;;;;;;9.05;5.63;;;;;;;6.91;85.63;90923.78;4976423;28;20485;-87
2021/07/02 02:30:21;;;;;;;9.77;5.97;;;;;;;6.92;86.16;90914.94;4943910;28;20030;-87
2021/07/02 02:33:18;;;;;;;10.77;6.00;;;;;;;6.91;86.53;90919.38;4961012;28;20057;-88
2021/07/02 02:35:54;;;;;;;9.35;5.63;;;;;;;6.90;85.35;90923.03;5033649;23;20077;-86
2021/07/02 02:38:21;;;;;;;10.27;6.10;;;;;;;6.88;86.21;90924.41;4998533;28;20022;-86
2021/07/02 02:41:01;;;;;;;10.38;5.90;;;;;;;6.84;86.41;90928.66;5015211;28;20036;-86
2021/07/02 02:43:40;;;;;;;11.50;6.25;;;;;;;6.91;86.53;90927.16;4998020;28;20039;-85
2021/07/02 02:46:21;;;;;;;9.50;5.90;;;;;;;6.88;86.49;90932.94;4996450;28;20034;-85
2021/07/02 02:48:56;;;;;;;10.07;5.82;;;;;;;6.85;85.30;90925.00;4980181;28;20030;-85
2021/07/02 02:51:35;;;;;;;10.98;6.43;;;;;;;6.73;86.09;90928.22;4995491;28;20030;-86
2021/07/02 02:54:16;;;;;;;10.32;5.72;;;;;;;6.72;86.57;90915.56;4977536;28;20034;-86
2021/07/02 02:57:09;;;;;;;12.57;6.68;;;;;;;6.67;87.01;90930.16;4945821;28;20046;-86
2021/07/02 02:59:48;;;;;;;8.30;5.20;;;;;;;6.80;86.68;90923.34;4975779;28;20060;-85
2021/07/02 03:02:22;;;;;;;11.43;6.28;;;;;;;6.62;86.52;90919.22;4961024;28;20029;-86
2021/07/02 03:05:00;;;;;;;9.47;5.77;;;;;;;6.60;87.06;90929.84;4929630;28;20528;-86
2021/07/02 03:07:42;;;;;;;8.38;5.30;;;;;;;6.59;86.93;90928.34;4946518;28;20268;-86
2021/07/02 03:10:19;;;;;;;11.70;6.30;;;;;;;6.54;87.61;90931.09;4962316;28;20031;-85
2021/07/02 03:12:59;;;;;;;9.50;5.80;;;;;;;6.56;87.92;90923.00;4945917;28;20477;-85
2021/07/02 03:15:35;;;;;;;11.18;5.20;;;;;;;6.59;87.56;90930.94;4947211;28;20478;-86
2021/07/02 03:18:16;;;;;;;11.50;6.85;;;;;;;6.56;87.27;90926.34;4946554;28;20058;-86
2021/07/02 03:20:54;;;;;;;10.73;5.88;;;;;;;6.54;87.63;90933.69;4945655;28;20031;-85
2021/07/02 03:23:33;;;;;;;10.93;6.78;;;;;;;6.54;87.96;90928.50;4964225;28;20500;-86
2021/07/02 03:26:16;;;;;;;9.85;5.95;;;;;;;6.61;87.73;90926.22;4963789;28;20045;-86
2021/07/02 03:28:50;;;;;;;11.63;6.40;;;;;;;6.68;87.31;90936.91;4996304;28;20034;-85
2021/07/02 03:31:25;;;;;;;9.43;5.90;;;;;;;6.53;87.70;90932.13;4995207;28;20031;-85
2021/07/02 03:34:06;;;;;;;10.43;6.15;;;;;;;6.54;88.31;90935.50;4996068;28;20145;-86
2021/07/02 03:36:42;;;;;;;11.15;6.05;;;;;;;6.56;87.95;90939.28;4996775;28;20023;-85
2021/07/02 03:39:20;;;;;;;14.07;6.40;;;;;;;6.55;87.63;90937.03;4980963;28;20034;-85
2021/07/02 03:42:00;;;;;;;11.80;5.82;;;;;;;6.58;87.58;90936.44;4980501;28;20030;-86
2021/07/02 03:44:39;;;;;;;11.75;6.45;;;;;;;6.52;88.05;90947.97;4997294;28;20044;-85
2021/07/02 03:47:20;;;;;;;11.02;6.15;;;;;;;6.53;87.95;90945.06;4997289;28;20022;-86
2021/07/02 03:50:04;;;;;;;11.65;5.88;;;;;;;6.50;88.46;90940.50;4997304;28;20084;-86
2021/07/02 03:52:46;;;;;;;12.07;6.57;;;;;;;6.57;88.04;90940.06;4965564;28;20476;-85
2021/07/02 03:55:20;;;;;;;10.23;6.10;;;;;;;6.58;87.81;90947.53;4965202;28;20033;-85
2021/07/02 03:58:00;;;;;;;11.40;6.85;;;;;;;6.57;87.93;90940.06;4966922;28;20403;-87
2021/07/02 04:00:37;;;;;;;10.93;6.35;;;;;;;6.65;86.95;90940.09;4949730;28;20030;-86
2021/07/02 04:03:16;;;;;;;10.48;5.95;;;;;;;6.67;86.93;90950.88;4950152;28;20022;-86
2021/07/02 04:05:53;;;;;;;10.15;6.53;;;;;;;6.63;87.67;90944.78;4965518;28;20113;-86
2021/07/02 04:08:32;;;;;;;9.82;6.43;;;;;;;6.59;88.41;90948.28;4949024;28;20520;-86
2021/07/02 04:11:09;;;;;;;10.88;6.07;;;;;;;6.63;87.88;90949.22;4996665;28;20030;-86
2021/07/02 04:13:39;;;;;;;10.93;6.75;;;;;;;6.65;87.42;90942.69;4965820;28;20085;-87
2021/07/02 04:16:14;;;;;;;10.30;6.38;;;;;;;6.68;87.46;90952.44;4948756;28;20101;-86
2021/07/02 04:18:57;;;;;;;9.68;5.35;;;;;;;6.67;86.11;90947.53;4950537;28;20059;-88
2021/07/02 04:21:32;;;;;;;10.18;4.80;;;;;;;6.60;85.50;90940.22;4946137;28;20113;-86
2021/07/02 04:24:11;;;;;;;8.55;5.30;;;;;;;6.78;85.46;90945.41;4936947;28;20035;-87
2021/07/02 04:26:48;;;;;;;11.35;6.55;;;;;;;6.70;85.87;90950.28;4982364;28;20105;-85
2021/07/02 04:29:27;;;;;;;11.77;6.28;;;;;;;6.76;87.60;90947.56;4983944;28;20646;-85
2021/07/02 04:32:11;;;;;;;13.63;6.63;;;;;;;6.77;87.92;90949.09;4953140;28;20389;-86
2021/07/02 04:34:50;;;;;;;9.90;6.18;;;;;;;6.94;88.04;90954.28;4935546;28;20023;-86
2021/07/02 04:37:20;;;;;;;10.13;5.82;;;;;;;7.13;86.72;90961.75;4949849;28;20050;-87
2021/07/02 04:39:54;;;;;;;10.40;5.95;;;;;;;7.13;86.68;90952.13;4947602;28;20042;-85
2021/07/02 04:42:28;;;;;;;12.13;6.38;;;;;;;7.26;86.88;90954.91;4945445;28;20537;-85
2021/07/02 04:45:05;;;;;;;9.38;5.75;;;;;;;7.28;86.54;90956.13;4930281;28;20106;-86
2021/07/02 04:47:45;;;;;;;10.48;5.75;;;;;;;7.39;85.90;90956.56;4946760;28;20034;-86
2021/07/02 04:50:24;;;;;;;10.88;6.15;;;;;;;7.36;86.28;90955.34;4972418;28;20117;-87
2021/07/02 04:53:03;;;;;;;11.48;6.05;;;;;;;7.46;86.96;90954.28;4973883;28;20031;-85
2021/07/02 04:55:37;;;;;;;10.45;6.43;;;;;;;7.55;87.45;90955.00;4975368;28;20023;-86
2021/07/02 04:58:16;;;;;;;11.23;5.97;;;;;;;7.75;86.51;90945.81;4945633;28;20031;-87
2021/07/02 05:00:56;;;;;;;10.15;5.85;;;;;;;7.84;86.40;90950.97;4978354;28;20034;-86
2021/07/02 05:03:24;;;;;;;9.40;6.10;;;;;;;7.99;86.32;90954.91;4946669;28;20058;-86
2021/07/02 05:06:06;;;;;;;9.77;6.03;;;;;;;8.02;86.31;90962.06;4949977;28;20031;-86
2021/07/02 05:08:43;;;;;;;11.23;6.15;;;;;;;8.03;86.74;90951.38;4956877;28;20030;-86
2021/07/02 05:11:25;;;;;;;9.73;6.55;;;;;;;8.19;86.30;90950.88;4925353;28;20444;-86
2021/07/02 05:13:51;;;;;;;9.13;5.78;;;;;;;8.25;85.67;90952.22;4957952;28;20093;-86
2021/07/02 05:16:30;;;;;;;11.23;6.00;;;;;;;8.43;85.18;90945.91;4944511;28;20023;-85
2021/07/02 05:19:08;;;;;;;17.52;9.45;;;;;;;8.48;85.50;90950.94;4972460;28;20026;-86
2021/07/02 05:21:43;;;;;;;20.48;12.25;;;;;;;8.67;86.44;90952.34;4980030;28;20034;-86
2021/07/02 05:24:19;;;;;;;20.30;11.90;;;;;;;8.80;85.58;90957.31;4978639;28;20073;-86
2021/07/02 05:26:54;;;;;;;23.75;13.20;;;;;;;8.95;85.56;90950.78;4994521;28;20058;-86
2021/07/02 05:29:30;;;;;;;18.35;11.10;;;;;;;9.21;85.61;90958.41;4963147;28;20477;-86
2021/07/02 05:32:08;;;;;;;18.13;10.38;;;;;;;9.29;84.95;90962.00;4967731;28;20062;-86
2021/07/02 05:34:38;;;;;;;17.83;11.18;;;;;;;9.50;84.68;90965.34;4961226;28;20690;-86
2021/07/02 05:37:18;;;;;;;16.63;9.13;;;;;;;9.69;85.40;90962.28;4941742;28;20485;-86
2021/07/02 05:39:56;;;;;;;15.63;7.65;;;;;;;10.00;84.65;90969.63;4925802;28;20481;-85
2021/07/02 05:42:30;;;;;;;12.40;7.60;;;;;;;10.30;81.18;90972.09;4942219;28;20022;-87
2021/07/02 05:45:03;;;;;;;10.43;6.60;;;;;;;10.56;77.08;90958.75;4925543;28;20117;-86
2021/07/02 05:48:03;;;;;;;14.63;6.47;;;;;;;10.82;76.81;90970.72;4941582;28;20026;-86
2021/07/02 05:50:33;;;;;;;8.48;5.43;;;;;;;11.11;72.99;90967.06;4975770;28;20034;-86
2021/07/02 05:53:08;;;;;;;10.20;5.90;;;;;;;11.16;74.18;90967.59;4944384;28;20117;-86
2021/07/02 05:55:38;;;;;;;9.82;6.00;;;;;;;11.27;72.95;90962.66;4977504;28;20074;-86
2021/07/02 05:58:19;;;;;;;10.82;6.22;;;;;;;11.29;71.70;90968.34;4964178;28;20030;-87
2021/07/02 06:00:54;;;;;;;10.60;6.28;;;;;;;11.35;71.20;90966.25;4947598;28;20037;-86
2021/07/02 06:03:24;;;;;;;9.18;5.30;;;;;;;11.46;70.51;90968.06;4968786;28;20026;-87
2021/07/02 06:06:03;;;;;;;10.18;6.15;;;;;;;11.52;71.37;90971.22;4960526;28;20027;-86
2021/07/02 06:08:41;;;;;;;11.05;6.00;;;;;;;11.54;70.46;90963.03;4961722;28;20031;-86
2021/07/02 06:11:20;;;;;;;12.60;6.22;;;;;;;11.64;76.08;90962.56;4944306;28;20058;-86
2021/07/02 06:14:02;;;;;;;9.63;5.63;;;;;;;11.82;71.71;90968.25;4960254;28;20082;-88
2021/07/02 06:16:38;;;;;;;9.27;5.45;;;;;;;11.98;70.97;90966.47;4962619;28;20038;-86
2021/07/02 06:19:15;;;;;;;10.20;5.30;;;;;;;12.03;70.65;90970.69;4974760;28;20035;-85
2021/07/02 06:21:49;;;;;;;11.73;5.70;;;;;;;12.03;70.14;90970.69;4957817;28;20023;-86
2021/07/02 06:24:27;;;;;;;7.10;4.65;;;;;;;12.07;67.76;90974.91;4941550;28;20054;-86
2021/07/02 06:27:04;;;;;;;9.70;5.20;;;;;;;12.10;69.50;90984.69;4979719;28;20117;-86
2021/07/02 06:29:30;;;;;;;6.90;4.95;;;;;;;12.16;66.34;90980.00;4967757;28;20030;-86
2021/07/02 06:32:10;;;;;;;8.48;5.28;;;;;;;12.08;66.90;90981.63;4962491;28;20065;-86
2021/07/02 06:34:43;;;;;;;8.13;5.32;;;;;;;12.26;66.40;90984.72;4964321;28;20022;-87
2021/07/02 06:37:23;;;;;;;7.03;4.75;;;;;;;12.24;66.47;90978.31;4949001;28;20054;-84
2021/07/02 06:39:55;;;;;;;8.32;5.30;;;;;;;12.34;66.28;90978.56;4964697;28;20026;-85
2021/07/02 06:42:24;;;;;;;8.35;5.10;;;;;;;12.43;67.35;90984.38;4969453;28;20030;-86
2021/07/02 06:44:55;;;;;;;7.85;4.75;;;;;;;12.65;64.60;90982.28;4981180;28;20018;-86
2021/07/02 06:47:26;;;;;;;8.02;5.00;;;;;;;12.42;64.37;90985.47;4968129;28;20462;-86
2021/07/02 06:49:56;;;;;;;9.38;5.13;;;;;;;12.50;63.43;90980.41;4983561;28;20474;-87
2021/07/02 06:52:22;;;;;;;7.32;4.95;;;;;;;12.72;64.68;90982.44;4961862;28;20034;-86
2021/07/02 06:54:48;;;;;;;8.05;4.72;;;;;;;12.70;64.87;90994.34;4945359;28;20030;-86
2021/07/02 06:57:18;;;;;;;9.75;5.13;;;;;;;12.76;63.71;90988.53;4991629;28;20036;-86
2021/07/02 06:59:45;;;;;;;7.50;4.93;;;;;;;12.81;62.76;90990.88;4980309;28;20441;-85
2021/07/02 07:02:12;;;;;;;8.23;5.10;;;;;;;12.66;63.01;90996.88;4967903;28;20485;-86
2021/07/02 07:04:41;;;;;;;7.65;5.05;;;;;;;12.82;61.95;90996.84;4964145;28;20048;-86
2021/07/02 07:07:09;;;;;;;8.73;5.20;;;;;;;12.97;64.64;90993.47;4962036;28;20126;-86
2021/07/02 07:09:37;;;;;;;8.50;4.88;;;;;;;13.01;63.38;90989.06;4956458;28;20578;-87
2021/07/02 07:12:05;;;;;;;7.45;4.28;;;;;;;13.22;63.20;90991.41;4947716;28;20029;-87
2021/07/02 07:14:32;;;;;;;6.70;4.90;;;;;;;13.20;63.30;90985.75;4961104;28;20026;-88
2021/07/02 07:16:59;;;;;;;9.20;4.80;;;;;;;13.10;61.55;90986.25;4981633;28;20069;-86
2021/07/02 07:19:31;;;;;;;7.68;4.72;;;;;;;13.01;62.37;90985.72;4966050;28;20121;-87
2021/07/02 07:21:59;;;;;;;9.05;4.45;;;;;;;13.12;61.85;90989.31;4982693;28;20042;-87
2021/07/02 07:24:30;;;;;;;6.13;4.38;;;;;;;13.19;62.87;90984.22;4966903;28;20026;-87
2021/07/02 07:27:00;;;;;;;6.43;4.47;;;;;;;13.22;61.82;90983.53;4961549;28;20023;-87
2021/07/02 07:29:26;;;;;;;8.65;4.15;;;;;;;13.43;61.45;90985.09;4977276;28;20037;-86
2021/07/02 07:32:01;;;;;;;6.93;4.43;;;;;;;13.36;60.95;90989.09;4956080;28;20102;-86
2021/07/02 07:34:51;;;;;;;7.38;4.40;;;;;;;13.50;60.17;90990.47;4948885;28;20357;-86
2021/07/02 07:37:21;;;;;;;8.02;4.65;;;;;;;13.44;61.15;90989.25;4993735;28;20026;-86
2021/07/02 07:39:48;;;;;;;7.78;4.93;;;;;;;13.57;58.28;90994.03;4962043;28;20026;-86
2021/07/02 07:42:13;;;;;;;6.90;4.60;;;;;;;13.57;59.69;90995.88;4947195;28;20026;-86
2021/07/02 07:44:39;;;;;;;9.35;3.95;;;;;;;13.62;56.90;90987.75;4940360;28;20035;-86
2021/07/02 07:47:04;;;;;;;7.25;3.95;;;;;;;13.68;57.58;90998.72;4982462;28;20030;-86
2021/07/02 07:49:29;;;;;;;6.10;3.88;;;;;;;13.56;56.55;90986.50;4968172;28;20052;-87
2021/07/02 07:52:12;;;;;;;7.35;4.10;;;;;;;13.74;57.33;90992.84;4981160;28;20029;-87
2021/07/02 07:54:38;;;;;;;7.25;4.45;;;;;;;13.79;56.81;90995.19;4969739;28;20022;-86
2021/07/02 07:57:04;;;;;;;6.68;4.10;;;;;;;14.02;57.56;90997.09;4950807;28;20615;-86
2021/07/02 07:59:30;;;;;;;6.97;4.32;;;;;;;13.90;56.99;90984.91;4944373;28;20027;-86
2021/07/02 08:01:56;;;;;;;6.25;4.30;;;;;;;14.02;58.93;90997.09;4945736;28;20030;-87
2021/07/02 08:04:22;;;;;;;9.15;4.43;;;;;;;14.22;55.28;90995.97;4992872;28;20089;-87
2021/07/02 08:06:50;;;;;;;5.82;4.20;;;;;;;14.11;55.88;91006.28;4966743;28;20031;-87
2021/07/02 08:09:16;;;;;;;6.28;4.15;;;;;;;14.26;56.66;90998.66;4979539;28;20500;-87
2021/07/02 08:11:43;;;;;;;8.00;4.82;;;;;;;14.49;56.65;91003.94;4993143;28;20507;-86
2021/07/02 08:14:10;;;;;;;9.48;5.28;;;;;;;14.56;56.86;91011.97;4993113;28;20018;-85
2021/07/02 08:16:38;;;;;;;8.07;5.00;;;;;;;14.53;57.79;91015.28;4985085;28;20084;-88
2021/07/02 08:19:04;;;;;;;9.25;4.50;;;;;;;14.52;58.51;91019.75;4977409;28;20030;-85
2021/07/02 08:21:30;;;;;;;5.95;4.80;;;;;;;14.58;58.98;91007.09;4961995;28;20027;-87
2021/07/02 08:23:57;;;;;;;6.72;4.47;;;;;;;14.91;60.90;91013.63;4961966;28;20022;-87
2021/07/02 08:26:24;;;;;;;8.93;5.40;;;;;;;15.17;61.24;91016.28;4973704;28;20026;-86
2021/07/02 08:31:35;;;;;;;7.63;4.35;;;;;;;14.76;56.88;91021.25;4974878;28;20032;-87
2021/07/02 08:34:00;;;;;;;6.90;4.90;;;;;;;14.65;59.58;91022.97;4961632;28;20031;-86
2021/07/02 08:36:25;;;;;;;9.38;4.55;;;;;;;14.51;58.46;91022.72;5045653;23;20045;-89
2021/07/02 08:38:51;;;;;;;10.05;4.90;;;;;;;14.49;60.09;91024.91;4996124;28;20034;-87
2021/07/02 08:41:16;;;;;;;9.45;4.88;;;;;;;14.54;59.35;91017.53;4996557;28;20022;-87
2021/07/02 08:43:45;;;;;;;9.43;4.93;;;;;;;14.66;61.87;91013.22;4996782;28;20034;-87
2021/07/02 08:46:12;;;;;;;11.55;4.80;;;;;;;14.75;56.90;91017.13;4981218;28;20169;-86
2021/07/02 08:48:38;;;;;;;7.28;4.60;;;;;;;14.90;56.48;91009.50;4965796;28;20030;-87
2021/07/02 08:51:03;;;;;;;7.50;4.85;;;;;;;14.81;57.99;91025.47;5015556;28;20080;-87
2021/07/02 08:53:29;;;;;;;6.07;4.22;;;;;;;14.94;59.32;91026.03;4982226;28;20029;-87
2021/07/02 08:55:56;;;;;;;7.05;4.50;;;;;;;15.17;58.35;91026.78;4997408;28;20454;-87
2021/07/02 08:58:24;;;;;;;7.28;5.00;;;;;;;15.07;59.43;91030.00;4996901;28;20030;-87
2021/07/02 09:00:50;;;;;;;6.25;4.45;;;;;;;15.11;58.57;91022.94;5009023;28;20081;-88
2021/07/02 09:03:27;;;;;;;6.50;4.32;;;;;;;15.28;57.76;91027.69;4995001;28;20534;-87
2021/07/02 09:05:54;;;;;;;8.02;4.25;;;;;;;15.33;55.84;91028.50;4977761;28;20026;-87
2021/07/02 09:08:20;;;;;;;5.50;3.95;;;;;;;15.45;56.17;91025.66;4994647;28;20018;-87
2021/07/02 09:10:46;;;;;;;5.93;4.60;;;;;;;15.67;59.37;91021.47;4977678;28;20119;-87
2021/07/02 09:13:12;;;;;;;6.93;4.93;;;;;;;15.59;58.76;91025.13;4977809;28;20030;-87
2021/07/02 09:15:56;;;;;;;9.52;5.38;;;;;;;15.59;58.97;91031.13;4977418;28;20021;-88
2021/07/02 09:18:22;;;;;;;10.15;5.38;;;;;;;15.43;59.01;91038.38;4995046;28;20113;-87
2021/07/02 09:20:47;;;;;;;9.13;4.88;;;;;;;15.10;58.80;91036.41;4979194;28;20038;-87
2021/07/02 09:23:14;;;;;;;9.02;4.93;;;;;;;14.79;60.46;91033.69;4995710;28;20076;-87
2021/07/02 09:25:47;;;;;;;10.85;5.30;;;;;;;14.71;62.62;91036.56;4994105;28;20100;-87
2021/07/02 09:28:14;;;;;;;7.88;5.30;;;;;;;15.05;62.37;91043.47;4996421;28;20027;-87
2021/07/02 09:30:41;;;;;;;10.52;5.30;;;;;;;15.28;61.59;91042.69;4958648;28;20023;-87
2021/07/02 09:33:11;;;;;;;8.93;5.40;;;;;;;15.30;59.16;91051.72;4943426;28;20026;-89
2021/07/02 09:35:45;;;;;;;7.65;5.45;;;;;;;15.63;60.71;91049.56;4941669;28;20600;-88
2021/07/02 09:38:10;;;;;;;9.40;5.60;;;;;;;15.41;58.47;91061.63;4946595;28;20030;-87
2021/07/02 09:40:37;;;;;;;7.53;5.82;;;;;;;15.00;58.49;91049.00;4974683;28;20027;-88
2021/07/02 09:43:08;;;;;;;6.88;4.85;;;;;;;14.72;60.10;91041.44;4958518;28;20073;-86
2021/07/02 09:45:50;;;;;;;7.88;4.78;;;;;;;15.05;58.52;91043.47;4973822;28;20404;-87
2021/07/02 09:48:18;;;;;;;7.18;5.07;;;;;;;15.34;59.53;91037.91;4958166;28;20397;-87
2021/07/02 09:50:58;;;;;;;8.35;5.30;;;;;;;15.44;58.78;91045.16;4973970;28;20027;-87
2021/07/02 09:53:30;;;;;;;7.38;4.53;;;;;;;15.65;60.29;91036.81;4973816;28;20093;-87
2021/07/02 09:55:58;;;;;;;9.05;4.82;;;;;;;15.69;58.97;91045.53;4958429;28;20396;-87
2021/07/02 09:58:34;;;;;;;8.98;4.50;;;;;;;15.50;57.68;91039.25;4973547;28;20061;-89
2021/07/02 10:01:03;;;;;;;6.43;4.63;;;;;;;15.60;58.72;91045.00;4989310;28;20082;-89
2021/07/02 10:03:34;;;;;;;8.48;5.07;;;;;;;15.41;57.38;91036.13;5006515;28;20195;-91
2021/07/02 10:06:02;;;;;;;6.68;4.50;;;;;;;15.49;58.94;91032.47;4998395;28;20030;-89
2021/07/02 10:08:31;;;;;;;8.80;5.10;;;;;;;15.87;56.53;91030.00;5009635;28;20169;-90
2021/07/02 10:11:00;;;;;;;6.20;4.53;;;;;;;15.75;58.36;91044.09;4989560;28;20499;-89
2021/07/02 10:13:32;;;;;;;9.63;4.90;;;;;;;15.72;58.65;91045.59;4972621;28;20097;-89
2021/07/02 10:15:59;;;;;;;8.07;4.55;;;;;;;15.74;58.15;91043.34;4967469;28;20042;-89
2021/07/02 10:18:28;;;;;;;7.05;4.50;;;;;;;15.74;56.10;91043.34;4958546;28;20029;-89
2021/07/02 10:20:57;;;;;;;7.13;4.07;;;;;;;15.94;53.87;91038.72;4960842;28;20030;-88
2021/07/02 10:23:37;;;;;;;5.97;4.47;;;;;;;16.28;52.59;91040.59;4944964;28;20027;-88
2021/07/02 10:26:06;;;;;;;7.28;3.63;;;;;;;16.29;49.08;91045.50;4964007;28;20054;-88
2021/07/02 10:28:35;;;;;;;6.68;4.20;;;;;;;16.43;54.24;91050.13;4979974;28;20030;-90
2021/07/02 10:31:02;;;;;;;6.40;4.20;;;;;;;16.21;50.01;91039.41;4976201;28;20416;-88
2021/07/02 10:33:30;;;;;;;6.07;3.78;;;;;;;16.36;51.13;91044.81;4959207;28;20027;-88
2021/07/02 10:36:01;;;;;;;6.75;3.97;;;;;;;16.40;51.12;91043.75;4944257;28;20023;-88
2021/07/02 10:38:37;;;;;;;8.15;4.10;;;;;;;16.62;52.56;91047.34;4951373;28;20380;-89
2021/07/02 10:41:17;;;;;;;5.75;3.90;;;;;;;16.67;50.49;91047.00;4962859;28;20042;-89
2021/07/02 10:44:14;;;;;;;5.25;3.78;;;;;;;16.80;48.81;91041.53;4978546;28;20030;-88
2021/07/02 10:46:50;;;;;;;6.50;3.75;;;;;;;16.81;48.41;91046.41;4974680;28;20504;-89
2021/07/02 10:49:20;;;;;;;5.35;3.90;;;;;;;16.81;51.52;91054.31;4980136;28;20042;-87
2021/07/02 10:51:58;;;;;;;9.50;4.40;;;;;;;16.77;47.88;91052.75;4994270;28;20034;-88
2021/07/02 10:54:27;;;;;;;6.60;3.80;;;;;;;16.64;50.81;91050.38;4979251;28;20026;-88
2021/07/02 10:57:00;;;;;;;7.68;4.03;;;;;;;16.88;48.68;91048.34;4998809;28;20042;-89
2021/07/02 10:59:37;;;;;;;5.50;3.88;;;;;;;16.86;48.62;91056.63;4999710;28;20032;-88
2021/07/02 11:02:06;;;;;;;5.78;3.95;;;;;;;17.05;47.58;91050.38;5016136;28;20033;-88
2021/07/02 11:04:37;;;;;;;5.90;4.10;;;;;;;16.93;48.21;91038.25;5016966;28;20100;-88
2021/07/02 11:07:18;;;;;;;5.97;3.53;;;;;;;16.90;48.19;91046.13;4966693;28;20563;-87
2021/07/02 11:12:35;;;;;;;5.53;3.75;;;;;;;16.95;49.30;91051.03;5017926;28;20282;-90
2021/07/02 11:15:09;;;;;;;6.68;3.80;;;;;;;17.15;47.93;91046.31;5000393;28;20024;-90
2021/07/02 11:17:52;;;;;;;4.72;3.40;;;;;;;17.08;47.55;91047.03;5018098;28;20028;-89
2021/07/02 11:20:21;;;;;;;6.05;3.30;;;;;;;17.47;44.07;91051.81;4983721;28;20093;-90
2021/07/02 11:22:48;;;;;;;4.82;3.00;;;;;;;17.36;40.32;91040.47;5018142;28;20026;-90
2021/07/02 11:25:41;;;;;;;4.53;3.25;;;;;;;17.31;41.67;91048.69;4981286;28;20058;-89
2021/07/02 11:28:20;;;;;;;4.20;3.22;;;;;;;17.48;44.27;91048.06;4997215;28;20030;-89
2021/07/02 11:30:52;;;;;;;6.07;3.20;;;;;;;17.74;42.86;91049.75;4981142;28;20030;-90
2021/07/02 11:33:20;;;;;;;4.07;2.72;;;;;;;17.62;39.11;91042.88;4982661;28;20026;-89
2021/07/02 11:36:07;;;;;;;5.05;2.58;;;;;;;17.98;39.51;91056.28;4980777;28;20058;-90
2021/07/02 11:38:45;;;;;;;4.03;2.60;;;;;;;17.89;42.78;91050.59;4977902;28;20050;-88
2021/07/02 11:41:26;;;;;;;3.85;2.80;;;;;;;17.95;38.68;91050.97;4953998;28;20034;-90
2021/07/02 11:43:56;;;;;;;3.53;2.35;;;;;;;17.88;35.85;91055.13;4994519;28;20522;-89
2021/07/02 11:46:23;;;;;;;4.10;2.25;;;;;;;18.17;39.73;91041.31;4994988;28;20014;-88
2021/07/02 11:48:54;;;;;;;2.70;2.03;;;;;;;17.95;33.96;91051.75;4955593;28;20065;-90
2021/07/02 11:51:24;;;;;;;3.70;2.70;;;;;;;17.56;35.88;91047.00;4999834;28;20057;-91
2021/07/02 11:54:03;;;;;;;4.28;2.45;;;;;;;17.47;36.10;91049.19;4981254;28;20022;-91
2021/07/02 11:56:30;;;;;;;4.63;2.90;;;;;;;17.52;38.77;91050.72;4980752;28;20027;-91
2021/07/02 11:59:01;;;;;;;3.78;2.95;;;;;;;17.65;38.57;91036.88;4967432;28;20034;-90
2021/07/02 12:01:43;;;;;;;4.55;3.13;;;;;;;17.91;39.09;91028.03;4964952;28;20026;-92
2021/07/02 12:04:21;;;;;;;6.10;3.30;;;;;;;17.77;40.88;91032.44;4982012;28;20027;-89
2021/07/02 12:06:50;;;;;;;5.28;2.83;;;;;;;17.69;40.70;91035.00;4963588;28;20033;-91
2021/07/02 12:09:19;;;;;;;3.50;2.80;;;;;;;17.97;40.82;91036.31;4981631;28;20029;-90
2021/07/02 12:11:50;;;;;;;5.35;3.47;;;;;;;18.11;40.76;91040.91;4967078;28;20038;-90